createdAt,value
2022-09-03T00:00:55.791Z,100144.59
2022-09-03T00:03:53.089Z,100147.53
2022-09-03T00:06:38.296Z,100140.66
2022-09-03T00:09:28.631Z,100150.09
2022-09-03T00:12:12.988Z,100147.94
2022-09-03T00:14:46.461Z,100152.38
2022-09-03T00:17:40.241Z,100147.94
2022-09-03T00:20:18.252Z,100151.31
2022-09-03T00:22:49.533Z,100147.44
2022-09-03T00:25:36.639Z,100143.50
2022-09-03T00:28:11.088Z,100147.94
2022-09-03T00:30:37.925Z,100140.03
2022-09-03T00:33:11.330Z,100138.84
2022-09-03T00:35:46.939Z,100142.84
2022-09-03T00:38:14.184Z,100139.50
2022-09-03T00:41:02.657Z,100146.66
2022-09-03T00:43:47.690Z,100146.59
2022-09-03T00:46:32.741Z,100140.44
2022-09-03T00:49:36.879Z,100147.44
2022-09-03T00:52:13.356Z,100147.00
2022-09-03T00:55:01.043Z,100145.22
2022-09-03T00:57:52.084Z,100155.63
2022-09-03T01:00:20.836Z,100141.00
2022-09-03T01:03:07.229Z,100157.31
2022-09-03T01:05:40.147Z,100158.88
2022-09-03T01:08:31.962Z,100154.19
2022-09-03T01:11:20.311Z,100152.00
2022-09-03T01:14:20.799Z,100158.56
2022-09-03T01:16:47.374Z,100156.25
2022-09-03T01:19:38.804Z,100158.16
2022-09-03T01:22:30.349Z,100165.50
2022-09-03T01:25:30.764Z,100160.25
2022-09-03T01:28:42.105Z,100163.50
2022-09-03T01:31:34.890Z,100164.97
2022-09-03T01:34:23.304Z,100160.53
2022-09-03T01:37:15.560Z,100163.63
2022-09-03T01:40:10.134Z,100161.09
2022-09-03T01:42:50.875Z,100164.59
2022-09-03T01:45:51.148Z,100170.84
2022-09-03T01:48:36.968Z,100163.72
2022-09-03T01:51:22.506Z,100166.25
2022-09-03T01:54:20.784Z,100172.34
2022-09-03T01:57:26.414Z,100168.88
2022-09-03T02:00:11.829Z,100168.78
2022-09-03T02:02:39.453Z,100160.72
2022-09-03T02:05:12.924Z,100168.50
2022-09-03T02:07:48.744Z,100163.03
2022-09-03T02:10:19.485Z,100170.97
2022-09-03T02:12:55.787Z,100180.34
2022-09-03T02:15:24.606Z,100171.09
2022-09-03T02:17:56.220Z,100172.72
2022-09-03T02:20:27.223Z,100178.47
2022-09-03T02:22:54.217Z,100174.63
2022-09-03T02:25:25.640Z,100181.41
2022-09-03T02:27:53.547Z,100179.38
2022-09-03T02:30:20.182Z,100179.44
2022-09-03T02:32:47.036Z,100181.59
2022-09-03T02:35:13.897Z,100174.41
2022-09-03T02:37:40.550Z,100171.50
2022-09-03T02:40:07.815Z,100171.88
2022-09-03T02:42:34.530Z,100169.75
2022-09-03T02:45:09.587Z,100176.94
2022-09-03T02:47:39.522Z,100172.53
2022-09-03T02:50:06.773Z,100179.97
2022-09-03T02:52:33.383Z,100177.81
2022-09-03T02:55:00.021Z,100177.84
2022-09-03T02:57:27.373Z,100179.22
2022-09-03T02:59:55.267Z,100178.34
2022-09-03T03:02:21.901Z,100177.94
2022-09-03T03:04:48.600Z,100179.03
2022-09-03T03:07:15.258Z,100182.88
2022-09-03T03:09:41.947Z,100181.59
2022-09-03T03:12:08.657Z,100175.97
2022-09-03T03:14:35.373Z,100178.53
2022-09-03T03:17:02.060Z,100176.03
2022-09-03T03:19:28.829Z,100181.88
2022-09-03T03:21:56.200Z,100180.16
2022-09-03T03:24:22.867Z,100178.84
2022-09-03T03:26:49.557Z,100185.09
2022-09-03T03:29:17.304Z,100180.09
2022-09-03T03:31:44.056Z,100187.91
2022-09-03T03:34:10.688Z,100190.28
2022-09-03T03:36:37.491Z,100190.38
2022-09-03T03:39:05.949Z,100194.31
2022-09-03T03:41:35.402Z,100195.06
2022-09-03T03:44:04.896Z,100196.97
2022-09-03T03:46:37.993Z,100194.16
2022-09-03T03:49:05.955Z,100198.63
2022-09-03T03:51:33.718Z,100202.75
2022-09-03T03:54:04.835Z,100208.31
2022-09-03T03:56:31.809Z,100214.97
2022-09-03T03:58:59.646Z,100203.81
2022-09-03T04:01:27.926Z,100209.09
2022-09-03T04:03:58.829Z,100202.88
2022-09-03T04:06:25.548Z,100203.56
2022-09-03T04:08:52.191Z,100204.25
2022-09-03T04:11:21.438Z,100216.69
2022-09-03T04:13:49.459Z,100217.47
2022-09-03T04:16:27.388Z,100211.16
2022-09-03T04:18:55.950Z,100216.69
2022-09-03T04:21:28.450Z,100212.66
2022-09-03T04:23:56.746Z,100217.25
2022-09-03T04:26:33.828Z,100220.91
2022-09-03T04:29:03.637Z,100216.72
2022-09-03T04:31:30.912Z,100214.47
2022-09-03T04:33:58.616Z,100223.81
2022-09-03T04:36:27.477Z,100226.34
2022-09-03T04:38:55.636Z,100225.81
2022-09-03T04:41:25.334Z,100224.13
2022-09-03T04:43:53.790Z,100238.09
2022-09-03T04:46:22.095Z,100240.56
2022-09-03T04:48:51.003Z,100237.03
2022-09-03T04:51:20.575Z,100238.97
2022-09-03T04:53:52.687Z,100234.91
2022-09-03T04:56:23.005Z,100239.09
2022-09-03T04:58:55.216Z,100241.09
2022-09-03T05:01:23.973Z,100242.53
2022-09-03T05:03:50.762Z,100247.53
2022-09-03T05:06:17.391Z,100240.19
2022-09-03T05:08:51.916Z,100243.09
2022-09-03T05:11:19.605Z,100240.00
2022-09-03T05:13:54.754Z,100237.91
2022-09-03T05:16:23.202Z,100242.38
2022-09-03T05:18:53.609Z,100242.75
2022-09-03T05:21:21.175Z,100246.06
2022-09-03T05:23:50.018Z,100245.06
2022-09-03T05:26:20.797Z,100251.16
2022-09-03T05:28:48.216Z,100246.31
2022-09-03T05:31:17.770Z,100239.63
2022-09-03T05:33:47.070Z,100249.09
2022-09-03T05:36:19.151Z,100243.31
2022-09-03T05:38:46.601Z,100240.13
2022-09-03T05:41:14.328Z,100252.50
2022-09-03T05:43:41.002Z,100246.31
2022-09-03T05:46:10.284Z,100247.09
2022-09-03T05:48:39.392Z,100245.00
2022-09-03T05:51:07.428Z,100248.91
2022-09-03T05:53:36.537Z,100245.84
2022-09-03T05:56:09.558Z,100252.50
2022-09-03T05:58:42.040Z,100254.31
2022-09-03T06:01:13.319Z,100259.06
2022-09-03T06:03:40.766Z,100260.53
2022-09-03T06:06:08.185Z,100258.38
2022-09-03T06:08:36.262Z,100254.63
2022-09-03T06:11:02.923Z,100260.19
2022-09-03T06:13:30.512Z,100257.78
2022-09-03T06:16:02.859Z,100250.75
2022-09-03T06:18:30.573Z,100250.34
2022-09-03T06:21:03.034Z,100246.78
2022-09-03T06:23:30.997Z,100247.84
2022-09-03T06:26:05.034Z,100244.47
2022-09-03T06:28:33.412Z,100248.56
2022-09-03T06:31:00.812Z,100250.44
2022-09-03T06:33:27.523Z,100246.22
2022-09-03T06:35:55.394Z,100251.13
2022-09-03T06:38:22.109Z,100246.03
2022-09-03T06:40:53.506Z,100242.38
2022-09-03T06:43:20.283Z,100235.94
2022-09-03T06:45:57.586Z,100237.38
2022-09-03T06:48:25.063Z,100246.66
2022-09-03T06:51:00.241Z,100242.22
2022-09-03T06:53:31.999Z,100248.59
2022-09-03T06:56:01.075Z,100239.34
2022-09-03T06:58:33.006Z,100245.59
2022-09-03T07:01:04.618Z,100245.06
2022-09-03T07:03:31.374Z,100244.72
2022-09-03T07:06:06.619Z,100245.06
2022-09-03T07:08:34.247Z,100246.00
2022-09-03T07:11:02.267Z,100250.94
2022-09-03T07:13:28.886Z,100241.41
2022-09-03T07:16:01.128Z,100242.78
2022-09-03T07:18:27.841Z,100238.72
2022-09-03T07:21:01.492Z,100235.53
2022-09-03T07:23:29.288Z,100239.88
2022-09-03T07:25:58.429Z,100232.22
2022-09-03T07:28:26.468Z,100234.34
2022-09-03T07:30:54.904Z,100239.09
2022-09-03T07:33:21.534Z,100232.47
2022-09-03T07:35:48.176Z,100230.50
2022-09-03T07:38:18.836Z,100241.38
2022-09-03T07:40:46.273Z,100242.94
2022-09-03T07:43:13.602Z,100242.13
2022-09-03T07:45:40.404Z,100235.91
2022-09-03T07:48:07.039Z,100245.41
2022-09-03T07:50:33.671Z,100243.56
2022-09-03T07:53:00.304Z,100247.34
2022-09-03T07:55:27.001Z,100245.44
2022-09-03T07:57:57.007Z,100242.19
2022-09-03T08:00:23.713Z,100256.81
2022-09-03T08:02:51.938Z,100255.00
2022-09-03T08:05:22.813Z,100248.59
2022-09-03T08:07:49.412Z,100254.25
2022-09-03T08:10:16.427Z,100261.59
2022-09-03T08:12:43.091Z,100255.78
2022-09-03T08:15:09.863Z,100255.16
2022-09-03T08:17:36.639Z,100251.84
2022-09-03T08:20:04.183Z,100249.75
2022-09-03T08:22:30.817Z,100242.38
2022-09-03T08:24:57.464Z,100247.50
2022-09-03T08:27:24.089Z,100246.97
2022-09-03T08:29:50.771Z,100247.19
2022-09-03T08:32:17.416Z,100246.84
2022-09-03T08:34:44.130Z,100252.03
2022-09-03T08:37:10.742Z,100248.91
2022-09-03T08:39:37.430Z,100248.19
2022-09-03T08:42:29.045Z,100253.59
2022-09-03T08:45:05.512Z,100253.91
2022-09-03T08:47:52.577Z,100254.09
2022-09-03T08:50:29.860Z,100257.75
2022-09-03T08:53:11.452Z,100255.41
2022-09-03T08:55:47.716Z,100249.13
2022-09-03T08:58:18.349Z,100253.91
2022-09-03T09:01:06.109Z,100260.19
2022-09-03T09:03:51.246Z,100254.06
2022-09-03T09:06:24.057Z,100251.69
2022-09-03T09:08:53.403Z,100247.22
2022-09-03T09:11:47.185Z,100249.22
2022-09-03T09:14:30.719Z,100251.34
2022-09-03T09:17:19.263Z,100245.72
2022-09-03T09:19:58.734Z,100243.94
2022-09-03T09:22:48.130Z,100238.66
2022-09-03T09:25:23.002Z,100237.28
2022-09-03T09:28:02.607Z,100234.66
2022-09-03T09:30:31.317Z,100245.09
2022-09-03T09:32:57.919Z,100232.47
2022-09-03T09:35:24.621Z,100233.13
2022-09-03T09:37:54.266Z,100231.09
2022-09-03T09:40:33.056Z,100239.13
2022-09-03T09:43:11.656Z,100231.31
2022-09-03T09:45:40.815Z,100233.69
2022-09-03T09:48:22.876Z,100236.13
2022-09-03T09:50:49.705Z,100235.47
2022-09-03T09:53:18.928Z,100228.19
2022-09-03T09:55:56.188Z,100229.38
2022-09-03T09:58:25.937Z,100224.88
2022-09-03T10:01:04.580Z,100224.88
2022-09-03T10:03:34.949Z,100237.06
2022-09-03T10:06:05.676Z,100232.28
2022-09-03T10:08:32.331Z,100227.47
2022-09-03T10:10:59.093Z,100239.00
2022-09-03T10:13:34.189Z,100228.63
2022-09-03T10:16:33.386Z,100230.97
2022-09-03T10:19:18.670Z,100235.03
2022-09-03T10:22:10.581Z,100230.50
2022-09-03T10:25:09.727Z,100232.91
2022-09-03T10:27:37.199Z,100238.41
2022-09-03T10:30:07.976Z,100227.88
2022-09-03T10:33:05.637Z,100219.94
2022-09-03T10:35:40.340Z,100222.41
2022-09-03T10:38:33.246Z,100222.31
2022-09-03T10:41:24.411Z,100223.72
2022-09-03T10:44:19.866Z,100222.28
2022-09-03T10:47:10.288Z,100224.44
2022-09-03T10:49:40.064Z,100218.00
2022-09-03T10:52:14.935Z,100222.59
2022-09-03T10:54:53.705Z,100219.56
2022-09-03T10:57:26.289Z,100208.88
2022-09-03T11:00:14.730Z,100220.44
2022-09-03T11:03:00.263Z,100204.59
2022-09-03T11:05:34.252Z,100195.47
2022-09-03T11:08:26.116Z,100191.22
2022-09-03T11:11:08.084Z,100203.94
2022-09-03T11:13:53.806Z,100198.44
2022-09-03T11:16:28.931Z,100190.88
2022-09-03T11:19:07.384Z,100198.59
2022-09-03T11:21:37.961Z,100195.50
2022-09-03T11:24:18.667Z,100188.88
2022-09-03T11:26:57.933Z,100196.81
2022-09-03T11:29:39.834Z,100201.66
2022-09-03T11:32:24.513Z,100202.84
2022-09-03T11:34:53.938Z,100197.22
2022-09-03T11:37:27.762Z,100197.72
2022-09-03T11:40:03.538Z,100197.59
2022-09-03T11:42:37.260Z,100194.19
2022-09-03T11:45:21.100Z,100197.47
2022-09-03T11:47:48.677Z,100198.91
2022-09-03T11:50:28.681Z,100199.16
2022-09-03T11:53:10.150Z,100197.19
2022-09-03T11:56:06.281Z,100202.78
2022-09-03T11:58:36.823Z,100196.69
2022-09-03T12:01:09.811Z,100198.66
2022-09-03T12:03:47.781Z,100197.06
2022-09-03T12:06:23.144Z,100203.34
2022-09-03T12:09:17.907Z,100205.22
2022-09-03T12:12:18.518Z,100213.16
2022-09-03T12:15:22.044Z,100207.81
2022-09-03T12:17:56.126Z,100209.28
2022-09-03T12:20:28.247Z,100200.09
2022-09-03T12:25:26.517Z,100197.19
2022-09-03T12:27:53.342Z,100188.94
2022-09-03T12:30:23.820Z,100200.50
2022-09-03T12:32:51.088Z,100188.06
2022-09-03T12:38:18.256Z,100179.31
2022-09-03T12:43:40.808Z,100184.44
2022-09-03T12:46:14.799Z,100183.03
2022-09-03T12:51:55.654Z,100176.16
2022-09-03T12:54:23.866Z,100178.97
2022-09-03T12:56:57.624Z,100183.75
2022-09-03T12:59:27.958Z,100190.22
2022-09-03T13:02:03.310Z,100176.94
2022-09-03T13:04:34.600Z,100176.28
2022-09-03T13:07:24.255Z,100176.50
2022-09-03T13:09:51.411Z,100180.00
2022-09-03T13:12:24.308Z,100176.25
2022-09-03T13:14:52.658Z,100177.13
2022-09-03T13:17:51.930Z,100183.94
2022-09-03T13:20:40.448Z,100172.91
2022-09-03T13:23:48.148Z,100168.47
2022-09-03T13:26:28.659Z,100168.56
2022-09-03T13:29:10.389Z,100173.91
2022-09-03T13:31:44.354Z,100170.78
2022-09-03T13:34:40.685Z,100166.81
2022-09-03T13:37:24.821Z,100157.72
2022-09-03T13:40:13.776Z,100163.84
2022-09-03T13:42:46.054Z,100159.16
2022-09-03T13:45:26.194Z,100153.97
2022-09-03T13:47:57.463Z,100153.91
2022-09-03T13:50:25.149Z,100163.00
2022-09-03T13:53:03.761Z,100151.88
2022-09-03T13:55:53.599Z,100142.47
2022-09-03T13:58:20.176Z,100148.78
2022-09-03T14:01:22.574Z,100149.41
2022-09-03T14:04:01.124Z,100152.03
2022-09-03T14:06:36.831Z,100143.63
2022-09-03T14:09:06.383Z,100155.69
2022-09-03T14:11:47.181Z,100146.78
2022-09-03T14:14:16.764Z,100147.97
2022-09-03T14:17:00.254Z,100138.38
2022-09-03T14:19:47.138Z,100140.91
2022-09-03T14:22:58.612Z,100143.41
2022-09-03T14:25:26.976Z,100140.41
2022-09-03T14:27:56.180Z,100138.56
2022-09-03T14:30:41.419Z,100134.41
2022-09-03T14:33:26.486Z,100136.03
2022-09-03T14:35:56.093Z,100132.59
2022-09-03T14:38:40.996Z,100136.63
2022-09-03T14:41:35.364Z,100131.78
2022-09-03T14:44:05.146Z,100129.56
2022-09-03T14:46:49.625Z,100121.38
2022-09-03T14:49:19.218Z,100123.13
2022-09-03T14:51:59.281Z,100127.22
2022-09-03T14:54:50.934Z,100109.31
2022-09-03T14:57:17.524Z,100122.41
2022-09-03T14:59:58.930Z,100119.84
2022-09-03T15:02:34.436Z,100122.19
2022-09-03T15:05:12.328Z,100124.75
2022-09-03T15:07:43.189Z,100124.34
2022-09-03T15:10:21.432Z,100127.94
2022-09-03T15:13:10.796Z,100141.72
2022-09-03T15:15:40.559Z,100137.72
2022-09-03T15:18:27.159Z,100137.34
2022-09-03T15:21:06.798Z,100130.38
2022-09-03T15:24:04.497Z,100135.03
2022-09-03T15:26:57.059Z,100133.66
2022-09-03T15:29:23.629Z,100126.06
2022-09-03T15:31:50.278Z,100132.75
2022-09-03T15:34:22.732Z,100133.78
2022-09-03T15:36:52.114Z,100124.84
2022-09-03T15:39:28.167Z,100123.03
2022-09-03T15:42:08.103Z,100122.72
2022-09-03T15:44:48.882Z,100121.84
2022-09-03T15:47:50.798Z,100124.81
2022-09-03T15:50:32.775Z,100117.28
2022-09-03T15:53:36.710Z,100125.28
2022-09-03T15:56:11.670Z,100127.50
2022-09-03T15:59:17.569Z,100128.53
2022-09-03T16:01:52.579Z,100119.69
2022-09-03T16:04:56.777Z,100133.63
2022-09-03T16:07:38.468Z,100126.75
2022-09-03T16:10:26.337Z,100131.31
2022-09-03T16:13:20.602Z,100129.59
2022-09-03T16:15:57.986Z,100134.34
2022-09-03T16:18:35.647Z,100122.91
2022-09-03T16:21:11.368Z,100120.78
2022-09-03T16:23:55.628Z,100129.59
2022-09-03T16:26:32.266Z,100130.63
2022-09-03T16:29:12.498Z,100126.06
2022-09-03T16:32:18.068Z,100122.19
2022-09-03T16:34:56.766Z,100131.41
2022-09-03T16:37:58.510Z,100138.53
2022-09-03T16:40:43.561Z,100133.72
2022-09-03T16:43:47.023Z,100136.84
2022-09-03T16:46:24.455Z,100138.63
2022-09-03T16:49:19.009Z,100139.53
2022-09-03T16:52:38.870Z,100141.25
2022-09-03T16:55:19.465Z,100135.13
2022-09-03T16:57:58.177Z,100140.84
2022-09-03T17:00:39.957Z,100137.84
2022-09-03T17:03:09.487Z,100140.66
2022-09-03T17:06:03.422Z,100147.03
2022-09-03T17:08:35.827Z,100148.19
2022-09-03T17:11:37.539Z,100150.56
2022-09-03T17:14:23.647Z,100153.25
2022-09-03T17:16:50.271Z,100158.91
2022-09-03T17:19:32.642Z,100160.50
2022-09-03T17:22:30.007Z,100162.47
2022-09-03T17:24:59.081Z,100157.28
2022-09-03T17:27:31.693Z,100160.06
2022-09-03T17:30:11.257Z,100160.94
2022-09-03T17:32:53.636Z,100167.09
2022-09-03T17:36:11.460Z,100163.19
2022-09-03T17:38:56.586Z,100168.91
2022-09-03T17:41:27.029Z,100173.97
2022-09-03T17:43:56.886Z,100176.34
2022-09-03T17:46:45.361Z,100178.84
2022-09-03T17:49:25.826Z,100179.91
2022-09-03T17:52:06.711Z,100177.22
2022-09-03T17:54:51.014Z,100171.31
2022-09-03T17:57:18.884Z,100177.22
2022-09-03T17:59:47.652Z,100178.91
2022-09-03T18:02:14.238Z,100187.72
2022-09-03T18:04:59.830Z,100186.44
2022-09-03T18:08:04.373Z,100188.56
2022-09-03T18:10:37.227Z,100192.41
2022-09-03T18:13:23.677Z,100195.97
2022-09-03T18:16:28.066Z,100200.59
2022-09-03T18:19:04.131Z,100203.81
2022-09-03T18:21:37.600Z,100208.63
2022-09-03T18:24:33.258Z,100212.16
2022-09-03T18:27:05.582Z,100213.34
2022-09-03T18:29:53.684Z,100208.72
2022-09-03T18:32:21.184Z,100218.16
2022-09-03T18:34:47.970Z,100218.16
2022-09-03T18:37:22.223Z,100221.75
2022-09-03T18:39:48.967Z,100220.72
2022-09-03T18:42:19.441Z,100222.38
2022-09-03T18:45:24.338Z,100219.69
2022-09-03T18:48:20.704Z,100217.31
2022-09-03T18:51:05.078Z,100217.94
2022-09-03T18:53:50.258Z,100219.41
2022-09-03T18:56:27.234Z,100226.44
2022-09-03T18:59:04.422Z,100223.63
2022-09-03T19:01:35.911Z,100217.09
2022-09-03T19:04:08.005Z,100219.63
2022-09-03T19:07:05.593Z,100219.00
2022-09-03T19:09:54.169Z,100217.50
2022-09-03T19:13:12.898Z,100219.16
2022-09-03T19:16:02.759Z,100228.34
2022-09-03T19:18:29.396Z,100224.88
2022-09-03T19:21:32.925Z,100225.88
2022-09-03T19:24:01.514Z,100230.66
2022-09-03T19:26:44.248Z,100232.25
2022-09-03T19:29:39.393Z,100233.50
2022-09-03T19:32:15.379Z,100225.66
2022-09-03T19:34:56.588Z,100227.59
2022-09-03T19:38:00.432Z,100230.19
2022-09-03T19:40:33.251Z,100236.56
2022-09-03T19:43:05.851Z,100231.78
2022-09-03T19:45:55.658Z,100234.28
2022-09-03T19:48:50.078Z,100228.84
2022-09-03T19:51:35.075Z,100236.28
2022-09-03T19:54:04.809Z,100236.88
2022-09-03T19:56:31.462Z,100234.13
2022-09-03T19:59:10.595Z,100248.03
2022-09-03T20:01:38.113Z,100249.72
2022-09-03T20:04:13.766Z,100247.06
2022-09-03T20:06:40.759Z,100241.75
2022-09-03T20:09:09.754Z,100249.63
2022-09-03T20:11:39.480Z,100257.22
2022-09-03T20:14:14.545Z,100263.81
2022-09-03T20:16:53.311Z,100256.56
2022-09-03T20:19:55.125Z,100264.53
2022-09-03T20:22:21.903Z,100263.94
2022-09-03T20:25:12.440Z,100262.59
2022-09-03T20:27:47.957Z,100274.59
2022-09-03T20:30:23.185Z,100266.13
2022-09-03T20:32:53.453Z,100279.97
2022-09-03T20:35:37.458Z,100278.56
2022-09-03T20:38:21.585Z,100278.88
2022-09-03T20:41:09.428Z,100284.47
2022-09-03T20:43:58.612Z,100280.56
2022-09-03T20:46:27.898Z,100291.66
2022-09-03T20:49:03.726Z,100288.06
2022-09-03T20:51:44.404Z,100289.47
2022-09-03T20:54:32.151Z,100287.81
2022-09-03T20:57:23.698Z,100284.81
2022-09-03T21:00:05.795Z,100292.03
2022-09-03T21:03:04.805Z,100303.03
2022-09-03T21:05:35.448Z,100302.78
2022-09-03T21:08:35.851Z,100308.34
2022-09-03T21:11:11.268Z,100299.78
2022-09-03T21:14:00.196Z,100309.75
2022-09-03T21:16:44.775Z,100304.72
2022-09-03T21:19:27.425Z,100305.72
2022-09-03T21:22:03.274Z,100304.53
2022-09-03T21:24:51.834Z,100300.66
2022-09-03T21:27:30.312Z,100309.59
2022-09-03T21:30:09.728Z,100304.25
2022-09-03T21:32:53.314Z,100310.72
2022-09-03T21:35:26.552Z,100311.28
2022-09-03T21:38:22.902Z,100309.66
2022-09-03T21:41:00.317Z,100310.03
2022-09-03T21:43:46.234Z,100312.03
2022-09-03T21:46:16.176Z,100318.97
2022-09-03T21:48:56.625Z,100313.97
2022-09-03T21:51:28.434Z,100326.00
2022-09-03T21:53:59.950Z,100319.09
2022-09-03T21:56:47.654Z,100319.66
2022-09-03T21:59:49.763Z,100316.38
2022-09-03T22:02:34.491Z,100327.53
2022-09-03T22:05:02.463Z,100325.34
2022-09-03T22:07:50.705Z,100326.50
2022-09-03T22:10:48.140Z,100319.19
2022-09-03T22:13:50.004Z,100328.47
2022-09-03T22:16:26.507Z,100329.19
2022-09-03T22:18:54.735Z,100330.97
2022-09-03T22:21:46.416Z,100336.69
2022-09-03T22:24:34.408Z,100324.34
2022-09-03T22:27:21.224Z,100327.22
2022-09-03T22:29:59.950Z,100324.56
2022-09-03T22:32:35.347Z,100331.94
2022-09-03T22:35:24.014Z,100326.19
2022-09-03T22:37:56.547Z,100325.34
2022-09-03T22:40:32.774Z,100326.81
2022-09-03T22:43:24.154Z,100322.22
2022-09-03T22:46:10.561Z,100336.44
2022-09-03T22:49:03.716Z,100322.91
2022-09-03T22:51:47.522Z,100323.88
2022-09-03T22:54:34.132Z,100325.00
2022-09-03T22:57:03.121Z,100320.88
2022-09-03T23:00:01.394Z,100328.78
2022-09-03T23:02:30.332Z,100324.06
2022-09-03T23:05:21.318Z,100325.13
2022-09-03T23:07:52.667Z,100317.53
2022-09-03T23:10:35.825Z,100327.31
2022-09-03T23:13:18.655Z,100325.03
2022-09-03T23:16:00.352Z,100327.25
2022-09-03T23:18:30.799Z,100330.34
2022-09-03T23:21:16.022Z,100332.28
2022-09-03T23:23:47.676Z,100336.38
2022-09-03T23:26:27.205Z,100336.38
2022-09-03T23:29:11.999Z,100337.91
2022-09-03T23:31:38.782Z,100328.72
2022-09-03T23:34:08.755Z,100339.59
2022-09-03T23:37:22.537Z,100335.91
2022-09-03T23:40:12.976Z,100337.78
2022-09-03T23:42:57.610Z,100335.28
2022-09-03T23:45:33.396Z,100337.88
2022-09-03T23:48:34.947Z,100339.19
2022-09-03T23:51:38.177Z,100342.63
2022-09-03T23:54:18.991Z,100340.25
2022-09-03T23:57:10.447Z,100338.16
2022-09-03T23:59:39.911Z,100342.97
